sensor_id;sensor_type;location;lat;lon;timestamp;temperature;humidity
7654;DHT22;3869;48.406;10.774;2023-03-31T00:01:21;6.50;99.90
7654;DHT22;3869;48.406;10.774;2023-03-31T00:03:49;6.40;99.90
7654;DHT22;3869;48.406;10.774;2023-03-31T00:06:18;6.50;99.90
7654;DHT22;3869;48.406;10.774;2023-03-31T00:08:46;6.50;99.90
7654;DHT22;3869;48.406;10.774;2023-03-31T00:11:18;6.60;99.90
7654;DHT22;3869;48.406;10.774;2023-03-31T00:13:47;6.60;99.90
7654;DHT22;3869;48.406;10.774;2023-03-31T00:16:16;6.60;99.90
7654;DHT22;3869;48.406;10.774;2023-03-31T00:18:45;6.60;99.90
7654;DHT22;3869;48.406;10.774;2023-03-31T00:21:18;6.60;99.90
7654;DHT22;3869;48.406;10.774;2023-03-31T00:23:56;6.60;99.90
7654;DHT22;3869;48.406;10.774;2023-03-31T00:26:24;6.60;99.90
7654;DHT22;3869;48.406;10.774;2023-03-31T00:28:54;6.50;99.90
7654;DHT22;3869;48.406;10.774;2023-03-31T00:31:23;6.50;99.90
7654;DHT22;3869;48.406;10.774;2023-03-31T00:33:53;6.50;99.90
7654;DHT22;3869;48.406;10.774;2023-03-31T00:36:21;6.50;99.90
7654;DHT22;3869;48.406;10.774;2023-03-31T00:38:52;6.40;99.90
7654;DHT22;3869;48.406;10.774;2023-03-31T00:41:21;6.40;99.90
7654;DHT22;3869;48.406;10.774;2023-03-31T00:44:01;6.30;99.90
7654;DHT22;3869;48.406;10.774;2023-03-31T00:46:36;6.40;99.90
7654;DHT22;3869;48.406;10.774;2023-03-31T00:49:10;6.30;99.90
7654;DHT22;3869;48.406;10.774;2023-03-31T00:51:40;6.20;99.90
7654;DHT22;3869;48.406;10.774;2023-03-31T00:54:08;6.20;99.90
7654;DHT22;3869;48.406;10.774;2023-03-31T00:56:40;6.20;99.90
7654;DHT22;3869;48.406;10.774;2023-03-31T00:59:11;6.20;99.90
7654;DHT22;3869;48.406;10.774;2023-03-31T01:01:44;6.20;99.90
7654;DHT22;3869;48.406;10.774;2023-03-31T01:04:16;6.20;99.90
7654;DHT22;3869;48.406;10.774;2023-03-31T01:06:54;6.10;99.90
7654;DHT22;3869;48.406;10.774;2023-03-31T01:09:29;6.10;99.90
7654;DHT22;3869;48.406;10.774;2023-03-31T01:12:02;6.10;99.90
7654;DHT22;3869;48.406;10.774;2023-03-31T01:14:32;6.00;99.90
7654;DHT22;3869;48.406;10.774;2023-03-31T01:17:01;6.00;99.90
7654;DHT22;3869;48.406;10.774;2023-03-31T01:19:41;6.00;99.90
7654;DHT22;3869;48.406;10.774;2023-03-31T01:25:43;5.90;99.90
7654;DHT22;3869;48.406;10.774;2023-03-31T01:28:25;5.90;99.90
7654;DHT22;3869;48.406;10.774;2023-03-31T01:31:51;5.90;99.90
7654;DHT22;3869;48.406;10.774;2023-03-31T01:38:09;5.90;99.90
7654;DHT22;3869;48.406;10.774;2023-03-31T01:41:11;6.00;99.90
7654;DHT22;3869;48.406;10.774;2023-03-31T01:43:46;6.00;99.90
7654;DHT22;3869;48.406;10.774;2023-03-31T01:46:20;6.00;99.90
7654;DHT22;3869;48.406;10.774;2023-03-31T01:48:56;5.90;99.90
7654;DHT22;3869;48.406;10.774;2023-03-31T01:51:31;5.90;99.90
7654;DHT22;3869;48.406;10.774;2023-03-31T01:54:05;5.90;99.90
7654;DHT22;3869;48.406;10.774;2023-03-31T01:56:41;5.80;99.90
7654;DHT22;3869;48.406;10.774;2023-03-31T01:59:14;5.80;99.90
7654;DHT22;3869;48.406;10.774;2023-03-31T02:01:50;5.80;99.90
7654;DHT22;3869;48.406;10.774;2023-03-31T02:04:23;5.80;99.90
7654;DHT22;3869;48.406;10.774;2023-03-31T02:06:57;5.90;99.90
7654;DHT22;3869;48.406;10.774;2023-03-31T02:09:32;6.00;99.90
7654;DHT22;3869;48.406;10.774;2023-03-31T02:12:06;6.10;99.90
7654;DHT22;3869;48.406;10.774;2023-03-31T02:14:37;6.20;99.90
7654;DHT22;3869;48.406;10.774;2023-03-31T02:17:07;6.20;99.90
7654;DHT22;3869;48.406;10.774;2023-03-31T02:19:40;6.10;99.90
7654;DHT22;3869;48.406;10.774;2023-03-31T02:22:10;6.20;99.90
7654;DHT22;3869;48.406;10.774;2023-03-31T02:24:40;6.20;99.90
7654;DHT22;3869;48.406;10.774;2023-03-31T02:27:20;6.30;99.90
7654;DHT22;3869;48.406;10.774;2023-03-31T02:29:50;6.40;99.90
7654;DHT22;3869;48.406;10.774;2023-03-31T02:32:23;6.40;99.90
7654;DHT22;3869;48.406;10.774;2023-03-31T02:34:53;6.50;99.90
7654;DHT22;3869;48.406;10.774;2023-03-31T02:37:21;6.60;99.90
7654;DHT22;3869;48.406;10.774;2023-03-31T02:39:51;6.60;99.90
7654;DHT22;3869;48.406;10.774;2023-03-31T02:42:21;6.60;99.90
7654;DHT22;3869;48.406;10.774;2023-03-31T02:44:49;6.70;99.90
7654;DHT22;3869;48.406;10.774;2023-03-31T02:47:19;6.70;99.90
7654;DHT22;3869;48.406;10.774;2023-03-31T02:49:51;6.80;99.90
7654;DHT22;3869;48.406;10.774;2023-03-31T02:52:40;6.80;99.90
7654;DHT22;3869;48.406;10.774;2023-03-31T02:55:46;6.90;99.90
7654;DHT22;3869;48.406;10.774;2023-03-31T02:58:30;6.90;99.90
7654;DHT22;3869;48.406;10.774;2023-03-31T03:01:14;7.00;99.90
7654;DHT22;3869;48.406;10.774;2023-03-31T03:03:57;7.00;99.90
7654;DHT22;3869;48.406;10.774;2023-03-31T03:06:37;7.10;99.90
7654;DHT22;3869;48.406;10.774;2023-03-31T03:09:23;7.10;99.90
7654;DHT22;3869;48.406;10.774;2023-03-31T03:12:03;7.20;99.90
7654;DHT22;3869;48.406;10.774;2023-03-31T03:14:38;7.20;99.90
7654;DHT22;3869;48.406;10.774;2023-03-31T03:17:13;7.30;99.90
7654;DHT22;3869;48.406;10.774;2023-03-31T03:19:42;7.40;99.90
7654;DHT22;3869;48.406;10.774;2023-03-31T03:22:10;7.40;99.90
7654;DHT22;3869;48.406;10.774;2023-03-31T03:24:38;7.50;99.90
7654;DHT22;3869;48.406;10.774;2023-03-31T03:27:06;7.50;99.90
7654;DHT22;3869;48.406;10.774;2023-03-31T03:29:35;7.50;99.90
7654;DHT22;3869;48.406;10.774;2023-03-31T03:32:03;7.60;99.90
7654;DHT22;3869;48.406;10.774;2023-03-31T03:34:31;7.60;99.90
7654;DHT22;3869;48.406;10.774;2023-03-31T03:36:59;7.70;99.90
7654;DHT22;3869;48.406;10.774;2023-03-31T03:39:27;7.70;99.90
7654;DHT22;3869;48.406;10.774;2023-03-31T03:41:55;7.80;99.90
7654;DHT22;3869;48.406;10.774;2023-03-31T03:44:23;7.80;99.90
7654;DHT22;3869;48.406;10.774;2023-03-31T03:46:52;7.80;99.90
7654;DHT22;3869;48.406;10.774;2023-03-31T03:49:20;7.90;99.90
7654;DHT22;3869;48.406;10.774;2023-03-31T03:51:48;7.90;99.90
7654;DHT22;3869;48.406;10.774;2023-03-31T03:54:16;7.90;99.90
7654;DHT22;3869;48.406;10.774;2023-03-31T03:56:44;7.90;99.90
7654;DHT22;3869;48.406;10.774;2023-03-31T03:59:12;7.90;99.90
7654;DHT22;3869;48.406;10.774;2023-03-31T04:01:40;7.90;99.90
7654;DHT22;3869;48.406;10.774;2023-03-31T04:04:09;7.90;99.90
7654;DHT22;3869;48.406;10.774;2023-03-31T04:06:37;8.00;99.90
7654;DHT22;3869;48.406;10.774;2023-03-31T04:09:05;8.00;99.90
7654;DHT22;3869;48.406;10.774;2023-03-31T04:11:34;8.00;99.90
7654;DHT22;3869;48.406;10.774;2023-03-31T04:14:02;8.00;99.90
7654;DHT22;3869;48.406;10.774;2023-03-31T04:16:30;8.00;99.90
7654;DHT22;3869;48.406;10.774;2023-03-31T04:19:00;8.00;99.90
7654;DHT22;3869;48.406;10.774;2023-03-31T04:21:31;8.00;99.90
7654;DHT22;3869;48.406;10.774;2023-03-31T04:24:03;8.10;99.90
7654;DHT22;3869;48.406;10.774;2023-03-31T04:26:32;8.10;99.90
7654;DHT22;3869;48.406;10.774;2023-03-31T04:29:08;8.10;99.90
7654;DHT22;3869;48.406;10.774;2023-03-31T04:31:38;8.20;99.90
7654;DHT22;3869;48.406;10.774;2023-03-31T04:34:09;8.20;99.90
7654;DHT22;3869;48.406;10.774;2023-03-31T04:36:42;8.20;99.90
7654;DHT22;3869;48.406;10.774;2023-03-31T04:39:14;8.20;99.90
7654;DHT22;3869;48.406;10.774;2023-03-31T04:41:42;8.20;99.90
7654;DHT22;3869;48.406;10.774;2023-03-31T04:44:10;8.20;99.90
7654;DHT22;3869;48.406;10.774;2023-03-31T04:46:38;8.30;99.90
7654;DHT22;3869;48.406;10.774;2023-03-31T04:49:06;8.30;99.90
7654;DHT22;3869;48.406;10.774;2023-03-31T04:51:34;8.30;99.90
7654;DHT22;3869;48.406;10.774;2023-03-31T04:54:04;8.30;99.90
7654;DHT22;3869;48.406;10.774;2023-03-31T04:56:32;8.40;99.90
7654;DHT22;3869;48.406;10.774;2023-03-31T04:58:59;8.40;99.90
7654;DHT22;3869;48.406;10.774;2023-03-31T05:01:29;8.40;99.90
7654;DHT22;3869;48.406;10.774;2023-03-31T05:03:59;8.50;99.90
7654;DHT22;3869;48.406;10.774;2023-03-31T05:06:27;8.50;99.90
7654;DHT22;3869;48.406;10.774;2023-03-31T05:08:55;8.50;99.90
7654;DHT22;3869;48.406;10.774;2023-03-31T05:11:25;8.50;99.90
7654;DHT22;3869;48.406;10.774;2023-03-31T05:13:53;8.60;99.90
7654;DHT22;3869;48.406;10.774;2023-03-31T05:16:21;8.60;99.90
7654;DHT22;3869;48.406;10.774;2023-03-31T05:18:49;8.60;99.90
7654;DHT22;3869;48.406;10.774;2023-03-31T05:21:18;8.60;99.90
7654;DHT22;3869;48.406;10.774;2023-03-31T05:23:47;8.60;99.90
7654;DHT22;3869;48.406;10.774;2023-03-31T05:26:15;8.60;99.90
7654;DHT22;3869;48.406;10.774;2023-03-31T05:28:44;8.70;99.90
7654;DHT22;3869;48.406;10.774;2023-03-31T05:31:12;8.70;99.90
7654;DHT22;3869;48.406;10.774;2023-03-31T05:33:40;8.70;99.90
7654;DHT22;3869;48.406;10.774;2023-03-31T05:36:10;8.70;99.90
7654;DHT22;3869;48.406;10.774;2023-03-31T05:38:38;8.80;99.90
7654;DHT22;3869;48.406;10.774;2023-03-31T05:41:07;8.80;99.90
7654;DHT22;3869;48.406;10.774;2023-03-31T05:43:37;8.90;99.90
7654;DHT22;3869;48.406;10.774;2023-03-31T05:46:06;8.90;99.90
7654;DHT22;3869;48.406;10.774;2023-03-31T05:48:35;8.90;99.90
7654;DHT22;3869;48.406;10.774;2023-03-31T05:51:04;9.00;99.90
7654;DHT22;3869;48.406;10.774;2023-03-31T05:53:32;9.00;99.90
7654;DHT22;3869;48.406;10.774;2023-03-31T05:56:02;9.00;99.90
7654;DHT22;3869;48.406;10.774;2023-03-31T05:58:32;9.00;99.90
7654;DHT22;3869;48.406;10.774;2023-03-31T06:01:02;9.10;99.90
7654;DHT22;3869;48.406;10.774;2023-03-31T06:03:34;9.10;99.90
7654;DHT22;3869;48.406;10.774;2023-03-31T06:06:03;9.20;99.90
7654;DHT22;3869;48.406;10.774;2023-03-31T06:08:34;9.20;99.90
7654;DHT22;3869;48.406;10.774;2023-03-31T06:11:04;9.30;99.90
7654;DHT22;3869;48.406;10.774;2023-03-31T06:13:33;9.30;99.90
7654;DHT22;3869;48.406;10.774;2023-03-31T06:16:01;9.30;99.90
7654;DHT22;3869;48.406;10.774;2023-03-31T06:18:32;9.30;99.90
7654;DHT22;3869;48.406;10.774;2023-03-31T06:21:02;9.30;99.90
7654;DHT22;3869;48.406;10.774;2023-03-31T06:23:30;9.30;99.90
7654;DHT22;3869;48.406;10.774;2023-03-31T06:26:00;9.30;99.90
7654;DHT22;3869;48.406;10.774;2023-03-31T06:28:29;9.30;99.90
7654;DHT22;3869;48.406;10.774;2023-03-31T06:31:01;9.30;99.90
7654;DHT22;3869;48.406;10.774;2023-03-31T06:33:31;9.30;99.90
7654;DHT22;3869;48.406;10.774;2023-03-31T06:36:01;9.30;99.90
7654;DHT22;3869;48.406;10.774;2023-03-31T06:38:32;9.30;99.90
7654;DHT22;3869;48.406;10.774;2023-03-31T06:41:00;9.40;99.90
7654;DHT22;3869;48.406;10.774;2023-03-31T06:43:28;9.30;99.90
7654;DHT22;3869;48.406;10.774;2023-03-31T06:45:56;9.30;99.90
7654;DHT22;3869;48.406;10.774;2023-03-31T06:48:25;9.30;99.90
7654;DHT22;3869;48.406;10.774;2023-03-31T06:50:54;9.20;99.90
7654;DHT22;3869;48.406;10.774;2023-03-31T06:53:24;9.20;99.90
7654;DHT22;3869;48.406;10.774;2023-03-31T06:55:52;9.10;99.90
7654;DHT22;3869;48.406;10.774;2023-03-31T06:58:20;9.10;99.90
7654;DHT22;3869;48.406;10.774;2023-03-31T07:00:49;9.10;99.90
7654;DHT22;3869;48.406;10.774;2023-03-31T07:03:18;9.10;99.90
7654;DHT22;3869;48.406;10.774;2023-03-31T07:05:48;9.10;99.90
7654;DHT22;3869;48.406;10.774;2023-03-31T07:08:17;9.20;99.90
7654;DHT22;3869;48.406;10.774;2023-03-31T07:10:47;9.20;99.90
7654;DHT22;3869;48.406;10.774;2023-03-31T07:13:16;9.20;99.90
7654;DHT22;3869;48.406;10.774;2023-03-31T07:15:47;9.20;99.90
7654;DHT22;3869;48.406;10.774;2023-03-31T07:18:15;9.20;99.90
7654;DHT22;3869;48.406;10.774;2023-03-31T07:20:47;9.20;99.90
7654;DHT22;3869;48.406;10.774;2023-03-31T07:23:16;9.20;99.90
7654;DHT22;3869;48.406;10.774;2023-03-31T07:25:47;9.20;99.90
7654;DHT22;3869;48.406;10.774;2023-03-31T07:28:15;9.20;99.90
7654;DHT22;3869;48.406;10.774;2023-03-31T07:30:43;9.20;99.90
7654;DHT22;3869;48.406;10.774;2023-03-31T07:33:11;9.30;99.90
7654;DHT22;3869;48.406;10.774;2023-03-31T07:35:40;9.30;99.90
7654;DHT22;3869;48.406;10.774;2023-03-31T07:38:09;9.30;99.90
7654;DHT22;3869;48.406;10.774;2023-03-31T07:40:38;9.40;99.90
7654;DHT22;3869;48.406;10.774;2023-03-31T07:43:07;9.50;99.90
7654;DHT22;3869;48.406;10.774;2023-03-31T07:45:38;9.60;99.90
7654;DHT22;3869;48.406;10.774;2023-03-31T07:48:06;9.60;99.90
7654;DHT22;3869;48.406;10.774;2023-03-31T07:50:34;9.70;99.90
7654;DHT22;3869;48.406;10.774;2023-03-31T07:53:02;9.70;99.90
7654;DHT22;3869;48.406;10.774;2023-03-31T07:55:30;9.80;99.90
7654;DHT22;3869;48.406;10.774;2023-03-31T07:57:58;9.80;99.90
7654;DHT22;3869;48.406;10.774;2023-03-31T08:00:28;9.80;99.90
7654;DHT22;3869;48.406;10.774;2023-03-31T08:02:56;9.90;99.90
7654;DHT22;3869;48.406;10.774;2023-03-31T08:05:24;10.00;99.90
7654;DHT22;3869;48.406;10.774;2023-03-31T08:07:52;9.90;99.90
7654;DHT22;3869;48.406;10.774;2023-03-31T08:10:26;9.90;99.90
7654;DHT22;3869;48.406;10.774;2023-03-31T08:12:54;9.90;99.90
7654;DHT22;3869;48.406;10.774;2023-03-31T08:15:22;9.90;99.90
7654;DHT22;3869;48.406;10.774;2023-03-31T08:17:52;9.80;99.90
7654;DHT22;3869;48.406;10.774;2023-03-31T08:20:20;9.70;99.90
7654;DHT22;3869;48.406;10.774;2023-03-31T08:22:48;9.70;99.90
7654;DHT22;3869;48.406;10.774;2023-03-31T08:25:16;9.70;99.90
7654;DHT22;3869;48.406;10.774;2023-03-31T08:27:46;9.60;99.90
7654;DHT22;3869;48.406;10.774;2023-03-31T08:30:18;9.60;99.90
7654;DHT22;3869;48.406;10.774;2023-03-31T08:32:46;9.60;99.90
7654;DHT22;3869;48.406;10.774;2023-03-31T08:35:15;9.50;99.90
7654;DHT22;3869;48.406;10.774;2023-03-31T08:37:43;9.50;99.90
7654;DHT22;3869;48.406;10.774;2023-03-31T08:40:16;9.50;99.90
7654;DHT22;3869;48.406;10.774;2023-03-31T08:42:48;9.60;99.90
7654;DHT22;3869;48.406;10.774;2023-03-31T08:45:20;9.70;99.90
7654;DHT22;3869;48.406;10.774;2023-03-31T08:47:52;9.70;99.90
7654;DHT22;3869;48.406;10.774;2023-03-31T08:50:26;9.80;99.90
7654;DHT22;3869;48.406;10.774;2023-03-31T08:53:00;9.90;99.90
7654;DHT22;3869;48.406;10.774;2023-03-31T08:55:44;10.00;99.90
7654;DHT22;3869;48.406;10.774;2023-03-31T08:58:22;10.20;99.90
7654;DHT22;3869;48.406;10.774;2023-03-31T09:01:01;10.40;99.90
7654;DHT22;3869;48.406;10.774;2023-03-31T09:03:38;10.50;99.90
7654;DHT22;3869;48.406;10.774;2023-03-31T09:06:13;10.50;99.90
7654;DHT22;3869;48.406;10.774;2023-03-31T09:08:43;10.50;99.90
7654;DHT22;3869;48.406;10.774;2023-03-31T09:11:25;10.50;99.90
7654;DHT22;3869;48.406;10.774;2023-03-31T09:14:09;10.40;99.90
7654;DHT22;3869;48.406;10.774;2023-03-31T09:16:44;10.50;99.90
7654;DHT22;3869;48.406;10.774;2023-03-31T09:19:18;10.50;99.90
7654;DHT22;3869;48.406;10.774;2023-03-31T09:21:51;10.60;99.90
7654;DHT22;3869;48.406;10.774;2023-03-31T09:24:22;10.60;99.90
7654;DHT22;3869;48.406;10.774;2023-03-31T09:26:55;10.60;99.90
7654;DHT22;3869;48.406;10.774;2023-03-31T09:29:27;10.60;99.90
7654;DHT22;3869;48.406;10.774;2023-03-31T09:32:00;10.70;99.90
7654;DHT22;3869;48.406;10.774;2023-03-31T09:34:31;10.70;99.90
7654;DHT22;3869;48.406;10.774;2023-03-31T09:37:01;10.80;99.90
7654;DHT22;3869;48.406;10.774;2023-03-31T09:39:30;10.90;99.90
7654;DHT22;3869;48.406;10.774;2023-03-31T09:41:58;11.00;99.90
7654;DHT22;3869;48.406;10.774;2023-03-31T09:44:29;11.00;99.90
7654;DHT22;3869;48.406;10.774;2023-03-31T09:46:59;11.00;99.90
7654;DHT22;3869;48.406;10.774;2023-03-31T09:49:33;11.10;99.90
7654;DHT22;3869;48.406;10.774;2023-03-31T09:52:04;11.10;99.90
7654;DHT22;3869;48.406;10.774;2023-03-31T09:54:36;11.20;99.90
7654;DHT22;3869;48.406;10.774;2023-03-31T09:57:22;11.30;99.90
7654;DHT22;3869;48.406;10.774;2023-03-31T09:59:51;11.40;99.90
7654;DHT22;3869;48.406;10.774;2023-03-31T10:02:37;11.50;99.90
7654;DHT22;3869;48.406;10.774;2023-03-31T10:05:25;11.50;99.90
7654;DHT22;3869;48.406;10.774;2023-03-31T10:10:55;11.60;99.90
7654;DHT22;3869;48.406;10.774;2023-03-31T10:13:25;11.70;99.90
7654;DHT22;3869;48.406;10.774;2023-03-31T10:16:01;11.80;99.90
7654;DHT22;3869;48.406;10.774;2023-03-31T10:18:33;12.00;99.90
7654;DHT22;3869;48.406;10.774;2023-03-31T10:21:03;12.10;99.90
7654;DHT22;3869;48.406;10.774;2023-03-31T10:23:34;12.10;99.90
7654;DHT22;3869;48.406;10.774;2023-03-31T10:26:03;12.20;99.90
7654;DHT22;3869;48.406;10.774;2023-03-31T10:28:33;12.10;99.90
7654;DHT22;3869;48.406;10.774;2023-03-31T10:31:02;12.10;99.90
7654;DHT22;3869;48.406;10.774;2023-03-31T10:33:33;12.10;99.90
7654;DHT22;3869;48.406;10.774;2023-03-31T10:36:07;12.20;99.90
7654;DHT22;3869;48.406;10.774;2023-03-31T10:38:43;12.30;99.90
7654;DHT22;3869;48.406;10.774;2023-03-31T10:41:17;12.50;99.90
7654;DHT22;3869;48.406;10.774;2023-03-31T10:43:49;12.60;99.90
7654;DHT22;3869;48.406;10.774;2023-03-31T10:46:18;12.80;99.90
7654;DHT22;3869;48.406;10.774;2023-03-31T10:48:46;12.90;99.90
7654;DHT22;3869;48.406;10.774;2023-03-31T10:51:16;13.00;99.90
7654;DHT22;3869;48.406;10.774;2023-03-31T10:53:47;13.10;99.90
7654;DHT22;3869;48.406;10.774;2023-03-31T10:56:34;13.20;99.90
7654;DHT22;3869;48.406;10.774;2023-03-31T10:59:23;13.30;99.90
7654;DHT22;3869;48.406;10.774;2023-03-31T11:02:04;13.40;99.90
7654;DHT22;3869;48.406;10.774;2023-03-31T11:04:43;13.40;99.90
7654;DHT22;3869;48.406;10.774;2023-03-31T11:07:26;13.50;99.90
7654;DHT22;3869;48.406;10.774;2023-03-31T11:10:17;13.50;99.90
7654;DHT22;3869;48.406;10.774;2023-03-31T11:12:51;13.60;99.90
7654;DHT22;3869;48.406;10.774;2023-03-31T11:15:29;13.50;99.90
7654;DHT22;3869;48.406;10.774;2023-03-31T11:18:16;13.60;99.90
7654;DHT22;3869;48.406;10.774;2023-03-31T11:20:55;13.70;99.90
7654;DHT22;3869;48.406;10.774;2023-03-31T11:23:34;13.70;99.90
7654;DHT22;3869;48.406;10.774;2023-03-31T11:26:09;13.70;99.90
7654;DHT22;3869;48.406;10.774;2023-03-31T11:31:36;13.80;99.90
7654;DHT22;3869;48.406;10.774;2023-03-31T11:34:22;13.80;99.90
7654;DHT22;3869;48.406;10.774;2023-03-31T11:40:03;13.80;99.90
7654;DHT22;3869;48.406;10.774;2023-03-31T11:42:43;13.80;99.90
7654;DHT22;3869;48.406;10.774;2023-03-31T11:45:16;13.90;99.90
7654;DHT22;3869;48.406;10.774;2023-03-31T11:47:48;14.00;99.90
7654;DHT22;3869;48.406;10.774;2023-03-31T11:50:19;14.10;99.90
7654;DHT22;3869;48.406;10.774;2023-03-31T11:52:55;14.30;99.90
7654;DHT22;3869;48.406;10.774;2023-03-31T11:55:26;14.50;99.90
7654;DHT22;3869;48.406;10.774;2023-03-31T11:58:01;14.50;99.90
7654;DHT22;3869;48.406;10.774;2023-03-31T12:00:33;14.50;99.90
7654;DHT22;3869;48.406;10.774;2023-03-31T12:03:08;14.40;99.90
7654;DHT22;3869;48.406;10.774;2023-03-31T12:05:41;14.40;99.90
7654;DHT22;3869;48.406;10.774;2023-03-31T12:08:14;14.40;99.90
7654;DHT22;3869;48.406;10.774;2023-03-31T12:10:45;14.30;99.90
7654;DHT22;3869;48.406;10.774;2023-03-31T12:13:33;14.30;99.90
7654;DHT22;3869;48.406;10.774;2023-03-31T12:16:05;14.30;99.90
7654;DHT22;3869;48.406;10.774;2023-03-31T12:18:39;14.30;99.90
7654;DHT22;3869;48.406;10.774;2023-03-31T12:21:09;14.40;99.90
7654;DHT22;3869;48.406;10.774;2023-03-31T12:23:40;14.40;99.90
7654;DHT22;3869;48.406;10.774;2023-03-31T12:26:17;14.40;99.90
7654;DHT22;3869;48.406;10.774;2023-03-31T12:28:55;14.50;99.90
7654;DHT22;3869;48.406;10.774;2023-03-31T12:31:25;14.50;99.90
7654;DHT22;3869;48.406;10.774;2023-03-31T12:33:58;14.50;99.90
7654;DHT22;3869;48.406;10.774;2023-03-31T12:36:36;14.50;99.90
7654;DHT22;3869;48.406;10.774;2023-03-31T12:39:18;14.50;99.90
7654;DHT22;3869;48.406;10.774;2023-03-31T12:42:02;14.50;99.90
7654;DHT22;3869;48.406;10.774;2023-03-31T12:44:48;14.40;99.90
7654;DHT22;3869;48.406;10.774;2023-03-31T12:47:29;14.40;99.90
7654;DHT22;3869;48.406;10.774;2023-03-31T12:52:59;13.90;99.90
7654;DHT22;3869;48.406;10.774;2023-03-31T12:55:37;13.50;99.90
7654;DHT22;3869;48.406;10.774;2023-03-31T12:58:44;12.60;99.90
7654;DHT22;3869;48.406;10.774;2023-03-31T13:01:16;11.90;99.90
7654;DHT22;3869;48.406;10.774;2023-03-31T13:03:47;11.50;99.90
7654;DHT22;3869;48.406;10.774;2023-03-31T13:06:45;11.20;99.90
7654;DHT22;3869;48.406;10.774;2023-03-31T13:09:43;11.10;99.90
7654;DHT22;3869;48.406;10.774;2023-03-31T13:12:17;11.20;99.90
7654;DHT22;3869;48.406;10.774;2023-03-31T13:14:47;11.40;99.90
7654;DHT22;3869;48.406;10.774;2023-03-31T13:17:24;11.70;99.90
7654;DHT22;3869;48.406;10.774;2023-03-31T13:19:54;11.90;99.90
7654;DHT22;3869;48.406;10.774;2023-03-31T13:22:30;12.10;99.90
7654;DHT22;3869;48.406;10.774;2023-03-31T13:25:31;12.10;99.90
7654;DHT22;3869;48.406;10.774;2023-03-31T13:28:23;12.30;99.90
7654;DHT22;3869;48.406;10.774;2023-03-31T13:30:53;12.40;99.90
7654;DHT22;3869;48.406;10.774;2023-03-31T13:33:26;12.60;99.90
7654;DHT22;3869;48.406;10.774;2023-03-31T13:36:17;12.70;99.90
7654;DHT22;3869;48.406;10.774;2023-03-31T13:38:58;12.80;99.90
7654;DHT22;3869;48.406;10.774;2023-03-31T13:41:36;13.00;99.90
7654;DHT22;3869;48.406;10.774;2023-03-31T13:44:31;13.10;99.90
7654;DHT22;3869;48.406;10.774;2023-03-31T13:50:38;13.20;99.90
7654;DHT22;3869;48.406;10.774;2023-03-31T13:53:19;13.10;99.90
7654;DHT22;3869;48.406;10.774;2023-03-31T14:02:17;13.60;99.90
7654;DHT22;3869;48.406;10.774;2023-03-31T14:05:08;13.70;99.90
7654;DHT22;3869;48.406;10.774;2023-03-31T14:07:44;13.70;99.90
7654;DHT22;3869;48.406;10.774;2023-03-31T14:10:28;13.70;99.90
7654;DHT22;3869;48.406;10.774;2023-03-31T14:13:06;13.60;99.90
7654;DHT22;3869;48.406;10.774;2023-03-31T14:15:36;13.50;99.90
7654;DHT22;3869;48.406;10.774;2023-03-31T14:18:06;13.50;99.90
7654;DHT22;3869;48.406;10.774;2023-03-31T14:20:47;13.50;99.90
7654;DHT22;3869;48.406;10.774;2023-03-31T14:23:34;13.50;99.90
7654;DHT22;3869;48.406;10.774;2023-03-31T14:26:10;13.60;99.90
7654;DHT22;3869;48.406;10.774;2023-03-31T14:29:04;13.60;99.90
7654;DHT22;3869;48.406;10.774;2023-03-31T14:31:41;13.60;99.90
7654;DHT22;3869;48.406;10.774;2023-03-31T14:34:23;13.60;99.90
7654;DHT22;3869;48.406;10.774;2023-03-31T14:36:58;13.80;99.90
7654;DHT22;3869;48.406;10.774;2023-03-31T14:39:30;13.90;99.90
7654;DHT22;3869;48.406;10.774;2023-03-31T14:42:03;14.00;99.90
7654;DHT22;3869;48.406;10.774;2023-03-31T14:44:33;13.90;99.90
7654;DHT22;3869;48.406;10.774;2023-03-31T14:47:01;13.90;99.90
7654;DHT22;3869;48.406;10.774;2023-03-31T14:49:34;13.90;99.90
7654;DHT22;3869;48.406;10.774;2023-03-31T14:52:12;14.00;99.90
7654;DHT22;3869;48.406;10.774;2023-03-31T14:54:43;13.90;99.90
7654;DHT22;3869;48.406;10.774;2023-03-31T14:57:17;13.90;99.90
7654;DHT22;3869;48.406;10.774;2023-03-31T14:59:47;14.00;99.90
7654;DHT22;3869;48.406;10.774;2023-03-31T15:02:19;14.00;99.90
7654;DHT22;3869;48.406;10.774;2023-03-31T15:04:50;14.00;99.90
7654;DHT22;3869;48.406;10.774;2023-03-31T15:07:18;13.90;99.90
7654;DHT22;3869;48.406;10.774;2023-03-31T15:09:49;13.90;99.90
7654;DHT22;3869;48.406;10.774;2023-03-31T15:12:19;13.90;99.90
7654;DHT22;3869;48.406;10.774;2023-03-31T15:14:51;13.90;99.90
7654;DHT22;3869;48.406;10.774;2023-03-31T15:17:20;13.80;99.90
7654;DHT22;3869;48.406;10.774;2023-03-31T15:19:56;13.60;99.90
7654;DHT22;3869;48.406;10.774;2023-03-31T15:22:26;13.50;99.90
7654;DHT22;3869;48.406;10.774;2023-03-31T15:24:56;13.40;99.90
7654;DHT22;3869;48.406;10.774;2023-03-31T15:27:31;13.40;99.90
7654;DHT22;3869;48.406;10.774;2023-03-31T15:30:05;13.20;99.90
7654;DHT22;3869;48.406;10.774;2023-03-31T15:32:35;13.10;99.90
7654;DHT22;3869;48.406;10.774;2023-03-31T15:35:04;13.00;99.90
7654;DHT22;3869;48.406;10.774;2023-03-31T15:37:49;12.80;99.90
7654;DHT22;3869;48.406;10.774;2023-03-31T15:40:22;12.70;99.90
7654;DHT22;3869;48.406;10.774;2023-03-31T15:42:53;12.60;99.90
7654;DHT22;3869;48.406;10.774;2023-03-31T15:45:50;12.40;99.90
7654;DHT22;3869;48.406;10.774;2023-03-31T15:48:28;12.30;99.90
7654;DHT22;3869;48.406;10.774;2023-03-31T15:51:00;12.20;99.90
7654;DHT22;3869;48.406;10.774;2023-03-31T15:53:30;12.10;99.90
7654;DHT22;3869;48.406;10.774;2023-03-31T15:56:00;12.10;99.90
7654;DHT22;3869;48.406;10.774;2023-03-31T15:58:53;12.00;99.90
7654;DHT22;3869;48.406;10.774;2023-03-31T16:01:22;12.00;99.90
7654;DHT22;3869;48.406;10.774;2023-03-31T16:03:54;12.00;99.90
7654;DHT22;3869;48.406;10.774;2023-03-31T16:06:30;12.00;99.90
7654;DHT22;3869;48.406;10.774;2023-03-31T16:09:03;12.00;99.90
7654;DHT22;3869;48.406;10.774;2023-03-31T16:11:37;11.90;99.90
7654;DHT22;3869;48.406;10.774;2023-03-31T16:14:10;11.80;99.90
7654;DHT22;3869;48.406;10.774;2023-03-31T16:16:45;11.70;99.90
7654;DHT22;3869;48.406;10.774;2023-03-31T16:19:14;11.40;99.90
7654;DHT22;3869;48.406;10.774;2023-03-31T16:21:45;11.20;99.90
7654;DHT22;3869;48.406;10.774;2023-03-31T16:24:15;11.00;99.90
7654;DHT22;3869;48.406;10.774;2023-03-31T16:26:45;10.80;99.90
7654;DHT22;3869;48.406;10.774;2023-03-31T16:29:19;10.70;99.90
7654;DHT22;3869;48.406;10.774;2023-03-31T16:31:47;10.50;99.90
7654;DHT22;3869;48.406;10.774;2023-03-31T16:34:16;10.50;99.90
7654;DHT22;3869;48.406;10.774;2023-03-31T16:36:44;10.50;99.90
7654;DHT22;3869;48.406;10.774;2023-03-31T16:39:13;10.40;99.90
7654;DHT22;3869;48.406;10.774;2023-03-31T16:41:41;10.40;99.90
7654;DHT22;3869;48.406;10.774;2023-03-31T16:44:11;10.40;99.90
7654;DHT22;3869;48.406;10.774;2023-03-31T16:46:39;10.40;99.90
7654;DHT22;3869;48.406;10.774;2023-03-31T16:49:07;10.40;99.90
7654;DHT22;3869;48.406;10.774;2023-03-31T16:51:34;10.40;99.90
7654;DHT22;3869;48.406;10.774;2023-03-31T16:54:02;10.30;99.90
7654;DHT22;3869;48.406;10.774;2023-03-31T16:56:30;10.30;99.90
7654;DHT22;3869;48.406;10.774;2023-03-31T16:58:58;10.20;99.90
7654;DHT22;3869;48.406;10.774;2023-03-31T17:01:28;10.20;99.90